Аэропорт: Иркутск. Иркутск

ICAO: UIII

METAR:
2021-01-20 04:00:00
UIII 200400Z 07002MPS CAVOK M15/M16 Q1011 R12/820550 NOSIG RMK QFE716/0955
METAR:
2021-01-20 02:00:00
TAF UIII 200200Z 2003/2103 14003MPS 9999 BKN015CB BECMG 2006/2008 32006G12MPS DRSN TEMPO 2008/2018 1200 SHSN BLSN